Time;durP1;ratioP1;P1;durP2;ratioP2;P2;SDS_P1;SDS_P2;PMS_P1;PMS_P2;Temp;Humidity;BMP_temperature;BMP_pressure;BME280_temperature;BME280_humidity;BME280_pressure;Samples;Min_cycle;Max_cycle;Signal;HPM_P1;HPM_P2
2021/10/09 00:05:16;;;;;;;33.55;22.48;;;10.70;99.90;;;;;;12396150;28;20557;-84
2021/10/09 00:11:33;;;;;;;30.25;22.20;;;10.70;99.90;;;;;;12378134;28;20104;-84
2021/10/09 00:17:34;;;;;;;29.00;20.73;;;10.50;99.90;;;;;;12393885;28;20033;-85
2021/10/09 00:23:36;;;;;;;31.27;20.10;;;10.50;99.90;;;;;;12399797;28;20406;-84
2021/10/09 00:29:38;;;;;;;31.42;21.92;;;10.50;99.90;;;;;;12386087;28;20546;-84
2021/10/09 00:35:40;;;;;;;33.63;22.55;;;10.40;99.90;;;;;;12382104;28;20074;-85
2021/10/09 00:41:43;;;;;;;36.85;24.00;;;10.30;99.90;;;;;;12389213;28;20046;-85
2021/10/09 00:47:45;;;;;;;32.70;22.52;;;10.20;99.90;;;;;;12378238;28;20072;-84
2021/10/09 00:53:47;;;;;;;32.95;22.92;;;10.30;99.90;;;;;;12382631;28;20053;-84
2021/10/09 00:59:51;;;;;;;39.88;24.67;;;10.40;99.90;;;;;;12387304;28;20553;-84
2021/10/09 01:05:53;;;;;;;34.13;24.10;;;10.30;99.90;;;;;;12379185;28;20471;-84
2021/10/09 01:11:54;;;;;;;33.72;24.75;;;10.30;99.90;;;;;;12384416;28;20691;-84
2021/10/09 01:17:56;;;;;;;40.65;24.73;;;10.20;99.90;;;;;;12380693;28;20096;-83
2021/10/09 01:23:58;;;;;;;33.05;22.52;;;10.30;99.90;;;;;;12373512;28;20053;-84
2021/10/09 01:30:01;;;;;;;37.58;24.35;;;10.30;99.90;;;;;;12397548;28;20066;-84
2021/10/09 01:36:03;;;;;;;34.90;23.52;;;10.20;99.90;;;;;;12400803;28;20395;-84
2021/10/09 01:42:05;;;;;;;45.58;25.95;;;10.10;99.90;;;;;;12387657;28;20563;-84
2021/10/09 01:48:07;;;;;;;36.85;25.08;;;9.90;99.90;;;;;;12402180;28;20181;-84
2021/10/09 01:54:09;;;;;;;36.63;24.25;;;10.00;99.90;;;;;;12395271;28;20520;-84
2021/10/09 02:00:11;;;;;;;35.20;24.55;;;10.10;99.90;;;;;;12381482;28;20053;-84
2021/10/09 02:06:13;;;;;;;37.47;24.50;;;10.20;99.90;;;;;;12410903;28;20109;-85
2021/10/09 02:12:15;;;;;;;39.05;26.27;;;10.10;99.90;;;;;;12390726;28;20068;-85
2021/10/09 02:30:26;;;;;;;35.58;24.08;;;10.00;99.90;;;;;;12397016;28;20480;-84
2021/10/09 02:36:28;;;;;;;35.55;24.23;;;10.00;99.90;;;;;;12380151;28;20539;-83
2021/10/09 02:42:30;;;;;;;35.67;22.63;;;10.00;99.90;;;;;;12381995;28;20486;-85
2021/10/09 02:48:31;;;;;;;35.38;24.42;;;9.70;99.90;;;;;;12382971;28;20109;-84
2021/10/09 02:54:33;;;;;;;39.30;23.52;;;9.50;99.90;;;;;;12378949;28;20061;-84
2021/10/09 03:00:35;;;;;;;37.30;24.50;;;9.40;99.90;;;;;;12390970;28;20825;-84
2021/10/09 03:06:37;;;;;;;35.20;23.65;;;9.40;99.90;;;;;;12379708;28;20474;-84
2021/10/09 03:12:40;;;;;;;35.00;21.92;;;9.40;99.90;;;;;;12379356;28;20117;-84
2021/10/09 03:18:41;;;;;;;39.95;25.17;;;9.30;99.90;;;;;;12384556;28;20916;-84
2021/10/09 03:24:43;;;;;;;33.30;22.33;;;9.10;99.90;;;;;;12396239;28;20152;-84
2021/10/09 03:30:45;;;;;;;36.88;22.92;;;9.00;99.90;;;;;;12400796;28;20096;-85
2021/10/09 03:36:47;;;;;;;33.83;22.83;;;9.00;99.90;;;;;;12382294;28;20058;-84
2021/10/09 03:42:54;;;;;;;35.88;23.35;;;8.90;99.90;;;;;;12379276;28;20248;-84
2021/10/09 03:49:04;;;;;;;34.15;24.02;;;8.90;99.90;;;;;;12400813;28;20552;-84
2021/10/09 03:55:09;;;;;;;91.43;21.33;;;8.70;99.90;;;;;;12387798;28;20069;-84
2021/10/09 04:01:11;;;;;;;150.85;18.00;;;8.60;99.90;;;;;;12393821;28;20046;-84
2021/10/09 04:07:13;;;;;;;71.65;18.35;;;8.60;99.90;;;;;;12387267;28;20562;-83
2021/10/09 04:13:14;;;;;;;60.08;17.88;;;8.40;99.90;;;;;;12387117;28;20560;-84
2021/10/09 04:19:16;;;;;;;79.30;20.23;;;8.10;99.90;;;;;;12399506;28;20567;-84
2021/10/09 04:25:19;;;;;;;52.72;19.92;;;8.20;99.90;;;;;;12390163;28;20532;-84
2021/10/09 04:31:21;;;;;;;39.30;20.80;;;8.20;99.90;;;;;;12391132;28;20071;-84
2021/10/09 04:37:23;;;;;;;53.72;21.63;;;8.20;99.90;;;;;;12387554;28;20189;-84
2021/10/09 04:43:25;;;;;;;70.95;21.13;;;8.40;99.90;;;;;;12389842;28;20042;-84
2021/10/09 04:49:26;;;;;;;84.28;21.15;;;8.40;99.90;;;;;;12397446;28;20089;-84
2021/10/09 04:55:28;;;;;;;140.85;19.42;;;8.50;99.90;;;;;;12402772;28;20038;-84
2021/10/09 05:01:30;;;;;;;128.88;18.13;;;8.40;99.90;;;;;;12389448;28;20120;-84
2021/10/09 05:07:32;;;;;;;137.10;19.73;;;8.40;99.90;;;;;;12391890;28;20062;-84
2021/10/09 05:13:34;;;;;;;44.33;18.08;;;8.40;99.90;;;;;;12385644;28;20506;-84
2021/10/09 05:19:36;;;;;;;53.10;18.48;;;8.50;99.90;;;;;;12395170;28;20572;-84
2021/10/09 05:25:38;;;;;;;35.22;17.52;;;8.50;99.90;;;;;;12388103;28;20053;-84
2021/10/09 05:31:40;;;;;;;51.47;18.10;;;8.50;99.90;;;;;;12388507;28;20038;-84
2021/10/09 05:37:42;;;;;;;39.13;19.30;;;8.60;99.90;;;;;;12390885;28;20548;-84
2021/10/09 05:43:45;;;;;;;52.20;19.58;;;8.50;99.90;;;;;;12400878;28;20088;-84
2021/10/09 05:49:52;;;;;;;53.72;19.17;;;8.50;99.90;;;;;;12387250;28;20144;-84
2021/10/09 05:55:57;;;;;;;45.83;18.85;;;8.70;99.90;;;;;;12385724;28;20046;-84
2021/10/09 07:05:01;;;;;;;26.73;18.73;;;8.40;99.90;;;;;;12388514;28;20050;-83
2021/10/09 07:11:04;;;;;;;25.55;18.42;;;8.60;99.90;;;;;;12375020;28;20091;-85
2021/10/09 07:17:06;;;;;;;26.98;19.75;;;8.80;99.90;;;;;;12381259;28;20099;-84
2021/10/09 07:23:10;;;;;;;27.45;18.90;;;8.70;99.90;;;;;;12407816;28;20045;-85
2021/10/09 07:29:13;;;;;;;31.17;19.98;;;8.80;99.90;;;;;;12398855;28;20061;-84
2021/10/09 07:35:15;;;;;;;29.70;19.13;;;8.70;99.90;;;;;;12384062;28;20072;-84
2021/10/09 07:41:17;;;;;;;28.50;19.92;;;8.90;99.90;;;;;;12386529;28;20054;-84
2021/10/09 07:47:19;;;;;;;31.23;20.98;;;8.90;99.90;;;;;;12393188;28;20057;-84
2021/10/09 07:53:21;;;;;;;32.17;20.58;;;9.00;99.90;;;;;;12394242;28;20038;-84
2021/10/09 07:59:23;;;;;;;28.50;21.00;;;9.10;99.90;;;;;;12383772;28;20049;-84
2021/10/09 08:05:25;;;;;;;36.10;21.95;;;9.20;99.90;;;;;;12393438;28;20055;-85
2021/10/09 08:11:27;;;;;;;33.63;21.88;;;9.20;99.90;;;;;;12388166;28;20549;-84
2021/10/09 08:17:28;;;;;;;33.70;21.42;;;9.30;99.90;;;;;;12380316;28;20580;-85
2021/10/09 08:39:18;;;;;;;32.05;19.70;;;9.70;99.90;;;;;;12422915;28;20058;-86
2021/10/09 08:45:23;;;;;;;32.65;19.88;;;10.10;99.90;;;;;;12466972;28;20142;-85
2021/10/09 08:51:27;;;;;;;28.75;20.35;;;10.10;99.90;;;;;;12467545;28;20104;-86
2021/10/09 08:57:34;;;;;;;27.35;18.95;;;10.20;99.90;;;;;;12423062;28;20053;-86
2021/10/09 09:41:52;;;;;;;25.10;14.95;;;11.60;99.90;;;;;;12487975;28;20178;-86
2021/10/09 09:47:59;;;;;;;25.42;14.85;;;12.00;99.90;;;;;;12502238;28;20072;-86
2021/10/09 09:54:02;;;;;;;30.27;14.98;;;12.40;99.90;;;;;;12489971;28;20053;-87
2021/10/09 10:00:12;;;;;;;21.90;14.60;;;12.40;99.90;;;;;;12480905;28;20054;-86
2021/10/09 10:06:15;;;;;;;29.33;14.88;;;12.70;99.90;;;;;;12492577;28;20056;-87
2021/10/09 10:12:17;;;;;;;24.23;14.55;;;12.80;99.90;;;;;;12499136;28;20098;-86
2021/10/09 10:18:49;;;;;;;25.90;15.18;;;13.20;99.90;;;;;;12477908;28;20545;-86
2021/10/09 10:24:51;;;;;;;22.38;14.90;;;13.20;99.90;;;;;;12482230;28;20540;-86
2021/10/09 10:31:04;;;;;;;25.90;15.40;;;13.20;99.90;;;;;;12477457;28;20417;-86
2021/10/09 10:37:06;;;;;;;33.78;14.75;;;13.10;99.90;;;;;;12503100;28;20614;-86
2021/10/09 10:43:39;;;;;;;23.30;14.32;;;13.20;99.90;;;;;;12487182;28;20093;-86
2021/10/09 10:49:54;;;;;;;23.88;14.23;;;13.70;99.90;;;;;;12488458;28;20414;-86
2021/10/09 10:56:08;;;;;;;;;;;13.90;99.90;;;;;;12499445;28;20317;-87
2021/10/09 11:02:15;;;;;;;26.92;15.00;;;13.90;99.90;;;;;;12482873;28;19925;-87
2021/10/09 11:08:17;;;;;;;21.70;13.27;;;14.10;99.90;;;;;;12500903;28;20067;-86
2021/10/09 11:14:23;;;;;;;25.17;13.60;;;14.20;99.90;;;;;;12481261;28;20057;-87
2021/10/09 11:20:27;;;;;;;20.85;12.50;;;14.40;99.90;;;;;;12476757;28;20091;-87
2021/10/09 11:26:29;;;;;;;17.40;11.80;;;14.60;99.90;;;;;;12496403;28;20079;-87
2021/10/09 11:32:36;;;;;;;18.95;11.75;;;14.50;99.90;;;;;;12480234;28;20049;-87
2021/10/09 11:38:37;;;;;;;18.25;11.90;;;14.40;99.90;;;;;;12484291;28;20053;-87
2021/10/09 11:44:48;;;;;;;24.65;11.75;;;14.60;99.90;;;;;;12478311;28;20490;-86
2021/10/09 11:57:16;;;;;;;17.17;10.63;;;14.80;99.90;;;;;;12489167;28;20025;-87
2021/10/09 12:03:28;;;;;;;19.10;10.70;;;14.80;99.90;;;;;;12481681;28;20044;-88
2021/10/09 12:09:44;;;;;;;17.02;10.52;;;15.10;99.90;;;;;;12490507;28;20061;-87
2021/10/09 12:15:46;;;;;;;19.73;10.60;;;15.20;99.90;;;;;;12479173;28;20421;-88
2021/10/09 12:21:51;;;;;;;15.52;9.30;;;15.40;99.90;;;;;;12480520;28;20049;-87
2021/10/09 12:27:59;;;;;;;18.92;9.32;;;15.70;99.90;;;;;;12499351;28;20068;-88
2021/10/09 12:34:02;;;;;;;16.88;9.65;;;15.40;99.90;;;;;;12465507;28;20046;-87
2021/10/09 12:40:08;;;;;;;15.65;9.70;;;15.50;99.90;;;;;;12483236;28;20057;-88
2021/10/09 12:46:15;;;;;;;17.13;8.30;;;15.60;99.90;;;;;;12488790;28;20494;-87
2021/10/09 12:52:37;;;;;;;16.65;8.90;;;15.70;99.90;;;;;;12475115;28;20075;-88
2021/10/09 12:58:39;;;;;;;13.90;8.38;;;15.50;99.90;;;;;;12479650;28;20144;-88
2021/10/09 13:04:41;;;;;;;16.85;8.00;;;15.40;99.90;;;;;;12474589;28;20045;-88
2021/10/09 13:10:48;;;;;;;16.27;7.60;;;15.30;99.90;;;;;;12483662;28;20451;-87
2021/10/09 13:16:55;;;;;;;14.88;6.80;;;15.00;99.90;;;;;;12494807;28;20406;-87
2021/10/09 13:22:57;;;;;;;11.77;7.15;;;15.10;99.90;;;;;;12494938;28;20682;-88
2021/10/09 13:29:07;;;;;;;13.15;7.00;;;15.00;99.90;;;;;;12488476;28;20061;-87
2021/10/09 13:35:09;;;;;;;14.52;6.97;;;15.20;99.90;;;;;;12493032;28;20128;-87
2021/10/09 13:41:11;;;;;;;15.38;6.40;;;15.10;99.90;;;;;;12486026;28;20499;-87
2021/10/09 13:47:13;;;;;;;12.35;7.10;;;14.90;99.90;;;;;;12489557;28;20041;-87
2021/10/09 13:53:15;;;;;;;12.05;7.25;;;14.70;99.90;;;;;;12480395;28;20056;-87
2021/10/09 13:59:17;;;;;;;11.88;6.97;;;14.60;99.90;;;;;;12478334;28;20105;-88
2021/10/09 14:05:19;;;;;;;11.27;6.97;;;14.60;99.90;;;;;;12487151;28;20091;-87
2021/10/09 14:11:21;;;;;;;12.30;7.80;;;14.50;99.90;;;;;;12494102;28;20054;-87
2021/10/09 14:17:23;;;;;;;17.30;7.28;;;14.40;99.90;;;;;;12488050;28;20071;-87
2021/10/09 14:23:32;;;;;;;15.38;7.30;;;14.30;99.90;;;;;;12485913;28;20315;-86
2021/10/09 14:29:35;;;;;;;11.73;7.38;;;14.30;99.90;;;;;;12485549;28;20707;-86
2021/10/09 14:35:37;;;;;;;16.73;8.18;;;14.20;99.90;;;;;;12479531;28;20049;-87
2021/10/09 14:41:39;;;;;;;14.43;7.15;;;14.10;99.90;;;;;;12480423;28;20411;-87
2021/10/09 14:47:47;;;;;;;14.70;7.47;;;14.10;99.90;;;;;;12478322;28;20065;-87
2021/10/09 14:54:27;;;;;;;16.25;7.43;;;14.10;99.90;;;;;;12486502;28;20543;-86
2021/10/09 15:19:24;;;;;;;16.48;7.05;;;14.00;99.90;;;;;;12476415;28;20280;-86
2021/10/09 15:25:26;;;;;;;13.95;7.72;;;14.00;99.90;;;;;;12481814;28;20086;-86
2021/10/09 15:31:27;;;;;;;17.65;8.38;;;13.90;99.90;;;;;;12508018;28;20048;-87
2021/10/09 15:37:30;;;;;;;20.48;8.23;;;14.00;99.90;;;;;;12476009;28;20478;-86
2021/10/09 15:43:32;;;;;;;12.15;7.97;;;13.90;99.90;;;;;;12501400;28;20098;-86
2021/10/09 15:49:34;;;;;;;13.35;8.13;;;13.80;99.90;;;;;;12496397;28;20079;-85
2021/10/09 15:55:36;;;;;;;15.60;7.93;;;13.70;99.90;;;;;;12478632;28;20045;-85
2021/10/09 16:01:38;;;;;;;14.98;7.15;;;13.50;99.90;;;;;;12491503;28;20108;-85
2021/10/09 16:07:41;;;;;;;16.70;7.05;;;13.40;99.90;;;;;;12470058;28;20501;-86
2021/10/09 16:13:43;;;;;;;15.20;6.95;;;13.20;99.90;;;;;;12470174;28;20049;-86
2021/10/09 16:19:44;;;;;;;10.50;6.43;;;13.10;99.90;;;;;;12483447;28;20050;-86
2021/10/09 16:25:46;;;;;;;14.40;7.35;;;13.10;99.90;;;;;;12476742;28;20111;-85
2021/10/09 16:31:48;;;;;;;12.18;6.70;;;13.10;99.90;;;;;;12473556;28;20051;-86
2021/10/09 16:37:50;;;;;;;10.30;5.70;;;12.90;99.90;;;;;;12475885;28;20053;-86
2021/10/09 16:43:52;;;;;;;12.27;6.10;;;12.50;99.90;;;;;;12481984;28;20100;-86
2021/10/09 16:49:54;;;;;;;13.13;6.53;;;12.20;99.90;;;;;;12498159;28;20096;-86
2021/10/09 16:55:57;;;;;;;13.85;6.32;;;12.10;99.90;;;;;;12488179;28;20394;-85
2021/10/09 17:01:59;;;;;;;15.55;6.13;;;12.00;99.90;;;;;;12492716;28;20054;-85
2021/10/09 17:08:01;;;;;;;13.48;5.75;;;11.90;99.90;;;;;;12494322;28;20049;-86
2021/10/09 17:14:04;;;;;;;15.60;6.40;;;11.70;99.90;;;;;;12478174;28;20046;-85
2021/10/09 17:20:07;;;;;;;12.95;6.85;;;11.60;99.90;;;;;;12490050;28;20110;-84
2021/10/09 17:26:10;;;;;;;16.50;6.05;;;11.60;99.90;;;;;;12490653;28;20260;-85
2021/10/09 17:32:12;;;;;;;12.60;6.25;;;11.50;99.90;;;;;;12481407;28;20106;-85
2021/10/09 17:38:14;;;;;;;10.85;6.20;;;11.40;99.90;;;;;;12506334;28;20526;-86
2021/10/09 17:44:16;;;;;;;12.68;6.75;;;11.30;99.90;;;;;;12483344;28;20402;-85
2021/10/09 17:50:21;;;;;;;16.85;7.50;;;11.30;99.90;;;;;;12483047;28;20681;-84
2021/10/09 17:56:23;;;;;;;14.52;6.88;;;11.20;99.90;;;;;;12481128;28;20468;-85
2021/10/09 18:02:25;;;;;;;13.27;7.30;;;11.10;99.90;;;;;;12476698;28;20420;-85
2021/10/09 18:08:28;;;;;;;12.95;6.78;;;11.20;99.90;;;;;;12495759;28;20060;-85
2021/10/09 18:14:30;;;;;;;18.23;8.05;;;11.20;99.90;;;;;;12493514;28;20547;-85
2021/10/09 18:20:32;;;;;;;16.88;7.63;;;11.20;99.90;;;;;;12497746;28;20041;-85
2021/10/09 18:26:34;;;;;;;14.43;8.15;;;11.10;99.90;;;;;;12477658;28;20344;-85
2021/10/09 18:32:36;;;;;;;13.55;8.05;;;11.00;99.90;;;;;;12477622;28;20487;-86
2021/10/09 18:38:38;;;;;;;16.13;8.13;;;10.90;99.90;;;;;;12492411;28;20077;-85
2021/10/09 18:44:39;;;;;;;14.13;8.40;;;10.90;99.90;;;;;;12477654;28;20107;-86
2021/10/09 18:50:41;;;;;;;12.52;7.95;;;10.80;99.90;;;;;;12483414;28;20045;-85
2021/10/09 18:56:43;;;;;;;14.00;8.48;;;10.80;99.90;;;;;;12489079;28;20459;-84
2021/10/09 19:02:45;;;;;;;13.65;7.63;;;10.70;99.90;;;;;;12478482;28;20103;-86
2021/10/09 19:08:47;;;;;;;13.88;7.45;;;10.70;99.90;;;;;;12485832;28;20129;-85
2021/10/09 19:14:49;;;;;;;14.45;7.68;;;10.80;99.90;;;;;;12480382;28;20046;-84
2021/10/09 19:20:51;;;;;;;13.65;7.22;;;10.70;99.90;;;;;;12482311;28;20084;-85
2021/10/09 19:26:53;;;;;;;15.18;7.18;;;10.60;99.90;;;;;;12483101;28;20053;-84
2021/10/09 19:32:58;;;;;;;13.30;7.60;;;10.50;99.90;;;;;;12483079;28;20102;-85
2021/10/09 19:38:59;;;;;;;14.13;7.47;;;10.60;99.90;;;;;;12486235;28;20126;-85
2021/10/09 19:45:01;;;;;;;14.82;7.03;;;10.40;99.90;;;;;;12495892;28;20041;-85
2021/10/09 19:51:11;;;;;;;13.75;7.60;;;10.30;99.90;;;;;;12484953;28;20049;-85
2021/10/09 19:57:13;;;;;;;15.68;7.20;;;10.30;99.90;;;;;;12477962;28;20119;-85
2021/10/09 20:03:15;;;;;;;13.35;7.10;;;10.40;99.90;;;;;;12470126;28;20536;-85
2021/10/09 20:09:30;;;;;;;12.68;6.50;;;10.70;99.90;;;;;;12477870;28;20568;-85
2021/10/09 20:15:32;;;;;;;14.48;7.70;;;10.60;99.90;;;;;;12476727;28;20049;-85
2021/10/09 20:21:38;;;;;;;12.50;7.50;;;10.50;99.90;;;;;;12478333;28;20106;-85
2021/10/09 20:27:40;;;;;;;11.18;7.70;;;10.20;99.90;;;;;;12478983;28;20102;-84
2021/10/09 20:33:42;;;;;;;16.30;7.38;;;10.00;99.90;;;;;;12472786;28;20069;-84
2021/10/09 20:39:44;;;;;;;15.93;8.25;;;10.30;99.90;;;;;;12471395;28;20103;-84
2021/10/09 20:45:54;;;;;;;14.90;7.35;;;10.30;99.90;;;;;;12477269;28;20045;-85
2021/10/09 20:51:56;;;;;;;16.67;8.02;;;9.90;99.90;;;;;;12475377;28;20041;-85
2021/10/09 20:57:58;;;;;;;14.70;7.85;;;10.10;99.90;;;;;;12474434;28;20052;-85
2021/10/09 21:03:59;;;;;;;14.82;8.38;;;10.00;99.90;;;;;;12481715;28;20386;-85
2021/10/09 21:10:02;;;;;;;13.93;8.30;;;10.00;99.90;;;;;;12487089;28;20551;-84
2021/10/09 21:22:30;;;;;;;15.15;8.10;;;9.80;99.90;;;;;;12480910;28;20088;-85
2021/10/09 21:28:32;;;;;;;12.77;7.70;;;9.60;99.90;;;;;;12492276;28;20288;-85
2021/10/09 21:34:35;;;;;;;15.27;8.07;;;9.50;99.90;;;;;;12485789;28;20056;-84
2021/10/09 21:40:36;;;;;;;15.50;8.30;;;9.30;99.90;;;;;;12473261;28;20109;-84
2021/10/09 21:46:38;;;;;;;13.05;8.10;;;9.40;99.90;;;;;;12478660;28;20106;-85
2021/10/09 21:52:40;;;;;;;15.43;8.30;;;9.30;99.90;;;;;;12503965;28;20123;-84
2021/10/09 21:58:51;;;;;;;11.70;8.07;;;9.30;99.90;;;;;;12488477;28;20060;-84
2021/10/09 22:17:34;;;;;;;15.38;8.30;;;9.10;99.90;;;;;;12476219;28;20531;-85
2021/10/09 22:36:27;;;;;;;13.50;7.85;;;8.90;99.90;;;;;;12487475;28;20065;-84
2021/10/09 22:42:30;;;;;;;12.32;8.10;;;8.90;99.90;;;;;;12488141;28;20464;-85
2021/10/09 22:48:33;;;;;;;14.60;8.60;;;8.90;99.90;;;;;;12481105;28;20140;-84
2021/10/09 22:54:34;;;;;;;13.10;8.07;;;8.80;99.90;;;;;;12492708;28;20126;-83
2021/10/09 23:00:36;;;;;;;15.48;8.38;;;8.70;99.90;;;;;;12475540;28;20071;-83
2021/10/09 23:06:38;;;;;;;15.70;8.35;;;8.60;99.90;;;;;;12480773;28;20049;-84
2021/10/09 23:12:40;;;;;;;13.25;8.00;;;8.60;99.90;;;;;;12481585;28;20072;-84
2021/10/09 23:18:42;;;;;;;12.45;6.85;;;8.70;99.90;;;;;;12470401;28;20059;-85
2021/10/09 23:24:44;;;;;;;10.10;6.03;;;8.60;99.90;;;;;;12472869;28;20106;-84
2021/10/09 23:30:47;;;;;;;11.95;6.18;;;8.50;99.90;;;;;;12475197;28;20041;-84
2021/10/09 23:36:49;;;;;;;10.83;6.20;;;8.40;99.90;;;;;;12480552;28;20049;-84
2021/10/09 23:42:51;;;;;;;16.52;6.75;;;8.10;99.90;;;;;;12483886;28;20045;-84
2021/10/09 23:48:53;;;;;;;9.98;6.20;;;7.90;99.90;;;;;;12479153;28;20583;-85
2021/10/09 23:54:55;;;;;;;11.52;6.53;;;7.90;99.90;;;;;;12478374;28;20468;-84
